• pl
  • eng

Awiacja
Kliknij na pogrubioną czerwoną nazwę, aby odkodować depeszę. 02:01 22.01.2017
  • WIND
  • SIGNIFICANT EURO
  • SIGNIFICANT
  • SIGMET
  • AIRMET
  • TAF FC
  • TAF FT
  • METAR GG30
  • METAR GG00


METAR EPBY 220100Z 24003KT 5000 BR SCT002 OVC004 01/00 Q1033 =

METAR EPGD 220100Z 24005KT 1100 0700NW R29/1700D BR OVC001 M01/M01
Q1031 =

METAR EPKK 220100Z 11004KT 060V160 9999 OVC013 00/M02 Q1033 =

METAR EPKT 220100Z 14005KT 2900 BR OVC012 M02/M02 Q1032 =

METAR EPLB 220100Z 33003KT 300V360 2500 BR OVC007 00/00 Q1033 =

METAR EPLL 220100Z VRB02KT 6000 BKN005 OVC006 00/00 Q1033 R25/29//95
=

METAR EPMO 220100Z 23004KT 3500 BR OVC002 00/00 Q1033 R08/290195 =

METAR EPPO 220100Z 14003KT 0300 R28/1100 FG OVC001 00/00 Q1033
R10/29//95 =

METAR EPRA 220100Z NIL=

METAR EPRZ 220100Z 24002KT 2000 BR OVC013 M00/M01 Q1034 =

METAR EPSC 220100Z 15005KT 0200 R31/0600N FG VV001 01/01 Q1032 =

METAR EPSY 220100Z NIL=

METAR EPWA 220100Z 27003KT 220V310 6000 OVC004 01/M00 Q1034 BECMG
5000 BR=

METAR EPWR 220100Z 13008KT 0200 R29/0750N FZFG VV001 M03/M04 Q1033 =

METAR EPZG 220100Z NIL=
Awiacja.imgw.pl jest pogodowym serwisem informacyjnym
Instytutu Meteorologii i Gospodarki Wodnej Państwowego Instytutu Badawczego.
Copyright IMGW PIB 2009-2011© Wszelkie prawa zastrzeżone.